sensor_id;sensor_type;location;lat;lon;timestamp;P1;durP1;ratioP1;P2;durP2;ratioP2
58260;SDS011;44058;52.898;6.502;2023-05-01T00:00:50;4.07;;;3.08;;
58260;SDS011;44058;52.898;6.502;2023-05-01T00:03:16;4.88;;;3.40;;
58260;SDS011;44058;52.898;6.502;2023-05-01T00:05:43;4.07;;;2.67;;
58260;SDS011;44058;52.898;6.502;2023-05-01T00:08:10;4.57;;;3.30;;
58260;SDS011;44058;52.898;6.502;2023-05-01T00:10:36;5.32;;;3.15;;
58260;SDS011;44058;52.898;6.502;2023-05-01T00:13:03;4.93;;;3.35;;
58260;SDS011;44058;52.898;6.502;2023-05-01T00:15:29;6.03;;;3.42;;
58260;SDS011;44058;52.898;6.502;2023-05-01T00:17:55;7.43;;;3.88;;
58260;SDS011;44058;52.898;6.502;2023-05-01T00:20:25;5.40;;;3.20;;
58260;SDS011;44058;52.898;6.502;2023-05-01T00:22:52;9.27;;;3.78;;
58260;SDS011;44058;52.898;6.502;2023-05-01T00:25:18;5.82;;;3.53;;
58260;SDS011;44058;52.898;6.502;2023-05-01T00:27:44;5.22;;;3.38;;
58260;SDS011;44058;52.898;6.502;2023-05-01T00:30:10;8.77;;;3.50;;
58260;SDS011;44058;52.898;6.502;2023-05-01T00:32:36;6.75;;;4.15;;
58260;SDS011;44058;52.898;6.502;2023-05-01T00:35:03;5.10;;;3.58;;
58260;SDS011;44058;52.898;6.502;2023-05-01T00:37:29;4.88;;;3.60;;
58260;SDS011;44058;52.898;6.502;2023-05-01T00:39:55;8.15;;;4.30;;
58260;SDS011;44058;52.898;6.502;2023-05-01T00:42:21;6.03;;;3.53;;
58260;SDS011;44058;52.898;6.502;2023-05-01T00:44:47;4.93;;;3.83;;
58260;SDS011;44058;52.898;6.502;2023-05-01T00:47:13;5.90;;;3.92;;
58260;SDS011;44058;52.898;6.502;2023-05-01T00:49:40;6.30;;;3.50;;
58260;SDS011;44058;52.898;6.502;2023-05-01T00:52:07;6.55;;;4.07;;
58260;SDS011;44058;52.898;6.502;2023-05-01T00:54:34;3.42;;;3.13;;
58260;SDS011;44058;52.898;6.502;2023-05-01T00:57:01;5.63;;;3.63;;
58260;SDS011;44058;52.898;6.502;2023-05-01T00:59:27;6.82;;;4.03;;
58260;SDS011;44058;52.898;6.502;2023-05-01T01:01:53;5.68;;;3.78;;
58260;SDS011;44058;52.898;6.502;2023-05-01T01:04:20;5.75;;;3.78;;
58260;SDS011;44058;52.898;6.502;2023-05-01T01:12:31;5.47;;;3.67;;
58260;SDS011;44058;52.898;6.502;2023-05-01T01:15:09;5.47;;;3.83;;
58260;SDS011;44058;52.898;6.502;2023-05-01T01:17:51;5.00;;;4.00;;
58260;SDS011;44058;52.898;6.502;2023-05-01T01:26:02;5.70;;;3.67;;
58260;SDS011;44058;52.898;6.502;2023-05-01T01:31:17;6.05;;;4.07;;
58260;SDS011;44058;52.898;6.502;2023-05-01T01:37:03;6.10;;;3.90;;
58260;SDS011;44058;52.898;6.502;2023-05-01T01:42:15;7.60;;;4.35;;
58260;SDS011;44058;52.898;6.502;2023-05-01T01:44:53;6.20;;;4.28;;
58260;SDS011;44058;52.898;6.502;2023-05-01T01:47:21;6.88;;;4.20;;
58260;SDS011;44058;52.898;6.502;2023-05-01T01:49:52;5.78;;;3.92;;
58260;SDS011;44058;52.898;6.502;2023-05-01T01:52:19;6.75;;;4.15;;
58260;SDS011;44058;52.898;6.502;2023-05-01T01:54:50;8.10;;;4.10;;
58260;SDS011;44058;52.898;6.502;2023-05-01T01:57:18;4.72;;;3.42;;
58260;SDS011;44058;52.898;6.502;2023-05-01T01:59:46;6.97;;;4.57;;
58260;SDS011;44058;52.898;6.502;2023-05-01T02:02:14;7.65;;;4.15;;
58260;SDS011;44058;52.898;6.502;2023-05-01T02:04:41;6.18;;;4.30;;
58260;SDS011;44058;52.898;6.502;2023-05-01T02:07:08;7.03;;;4.72;;
58260;SDS011;44058;52.898;6.502;2023-05-01T02:09:36;8.18;;;4.47;;
58260;SDS011;44058;52.898;6.502;2023-05-01T02:12:06;7.07;;;4.32;;
58260;SDS011;44058;52.898;6.502;2023-05-01T02:14:33;6.70;;;4.45;;
58260;SDS011;44058;52.898;6.502;2023-05-01T02:16:59;6.07;;;4.20;;
58260;SDS011;44058;52.898;6.502;2023-05-01T02:19:26;5.28;;;3.72;;
58260;SDS011;44058;52.898;6.502;2023-05-01T02:21:53;4.95;;;3.95;;
58260;SDS011;44058;52.898;6.502;2023-05-01T02:26:49;6.80;;;4.10;;
58260;SDS011;44058;52.898;6.502;2023-05-01T02:29:16;7.65;;;4.00;;
58260;SDS011;44058;52.898;6.502;2023-05-01T02:31:42;6.28;;;4.03;;
58260;SDS011;44058;52.898;6.502;2023-05-01T02:34:08;4.45;;;3.75;;
58260;SDS011;44058;52.898;6.502;2023-05-01T02:36:35;5.72;;;4.00;;
58260;SDS011;44058;52.898;6.502;2023-05-01T02:39:02;5.32;;;4.00;;
58260;SDS011;44058;52.898;6.502;2023-05-01T02:41:28;8.20;;;3.80;;
58260;SDS011;44058;52.898;6.502;2023-05-01T02:43:59;7.10;;;4.00;;
58260;SDS011;44058;52.898;6.502;2023-05-01T02:46:28;8.02;;;4.10;;
58260;SDS011;44058;52.898;6.502;2023-05-01T02:48:56;5.47;;;3.93;;
58260;SDS011;44058;52.898;6.502;2023-05-01T02:51:22;8.63;;;4.35;;
58260;SDS011;44058;52.898;6.502;2023-05-01T02:53:49;6.68;;;4.40;;
58260;SDS011;44058;52.898;6.502;2023-05-01T02:56:15;7.88;;;4.70;;
58260;SDS011;44058;52.898;6.502;2023-05-01T02:58:41;7.07;;;4.10;;
58260;SDS011;44058;52.898;6.502;2023-05-01T03:01:08;9.85;;;4.60;;
58260;SDS011;44058;52.898;6.502;2023-05-01T03:03:35;5.82;;;4.13;;
58260;SDS011;44058;52.898;6.502;2023-05-01T03:06:01;8.40;;;4.45;;
58260;SDS011;44058;52.898;6.502;2023-05-01T03:08:27;9.05;;;4.10;;
58260;SDS011;44058;52.898;6.502;2023-05-01T03:10:53;6.88;;;4.40;;
58260;SDS011;44058;52.898;6.502;2023-05-01T03:13:20;7.38;;;4.03;;
58260;SDS011;44058;52.898;6.502;2023-05-01T03:15:47;6.60;;;4.30;;
58260;SDS011;44058;52.898;6.502;2023-05-01T03:18:13;7.00;;;4.30;;
58260;SDS011;44058;52.898;6.502;2023-05-01T03:20:39;7.35;;;4.20;;
58260;SDS011;44058;52.898;6.502;2023-05-01T03:23:05;5.72;;;3.97;;
58260;SDS011;44058;52.898;6.502;2023-05-01T03:25:31;8.02;;;4.55;;
58260;SDS011;44058;52.898;6.502;2023-05-01T03:27:57;9.50;;;4.30;;
58260;SDS011;44058;52.898;6.502;2023-05-01T03:30:23;5.97;;;4.05;;
58260;SDS011;44058;52.898;6.502;2023-05-01T03:32:50;7.78;;;4.53;;
58260;SDS011;44058;52.898;6.502;2023-05-01T03:35:16;6.15;;;4.13;;
58260;SDS011;44058;52.898;6.502;2023-05-01T03:37:42;8.18;;;4.47;;
58260;SDS011;44058;52.898;6.502;2023-05-01T03:40:08;6.55;;;4.10;;
58260;SDS011;44058;52.898;6.502;2023-05-01T03:42:35;5.22;;;3.60;;
58260;SDS011;44058;52.898;6.502;2023-05-01T03:45:01;7.50;;;4.07;;
58260;SDS011;44058;52.898;6.502;2023-05-01T03:47:27;5.93;;;4.00;;
58260;SDS011;44058;52.898;6.502;2023-05-01T03:49:53;5.53;;;3.60;;
58260;SDS011;44058;52.898;6.502;2023-05-01T03:52:19;5.38;;;3.75;;
58260;SDS011;44058;52.898;6.502;2023-05-01T03:54:45;3.53;;;3.20;;
58260;SDS011;44058;52.898;6.502;2023-05-01T03:57:11;5.70;;;3.40;;
58260;SDS011;44058;52.898;6.502;2023-05-01T03:59:38;8.25;;;4.00;;
58260;SDS011;44058;52.898;6.502;2023-05-01T04:04:34;5.20;;;3.80;;
58260;SDS011;44058;52.898;6.502;2023-05-01T04:07:00;6.10;;;3.90;;
58260;SDS011;44058;52.898;6.502;2023-05-01T04:09:26;6.00;;;4.22;;
58260;SDS011;44058;52.898;6.502;2023-05-01T04:11:54;6.30;;;3.45;;
58260;SDS011;44058;52.898;6.502;2023-05-01T04:14:21;6.57;;;3.35;;
58260;SDS011;44058;52.898;6.502;2023-05-01T04:16:48;3.88;;;3.28;;
58260;SDS011;44058;52.898;6.502;2023-05-01T04:19:15;4.07;;;3.05;;
58260;SDS011;44058;52.898;6.502;2023-05-01T04:21:41;6.53;;;3.58;;
58260;SDS011;44058;52.898;6.502;2023-05-01T04:24:07;6.35;;;4.38;;
58260;SDS011;44058;52.898;6.502;2023-05-01T04:26:33;5.05;;;3.72;;
58260;SDS011;44058;52.898;6.502;2023-05-01T04:28:59;4.25;;;3.40;;
58260;SDS011;44058;52.898;6.502;2023-05-01T04:31:25;5.65;;;4.10;;
58260;SDS011;44058;52.898;6.502;2023-05-01T04:33:51;6.88;;;3.95;;
58260;SDS011;44058;52.898;6.502;2023-05-01T04:36:17;4.85;;;4.15;;
58260;SDS011;44058;52.898;6.502;2023-05-01T04:38:44;7.25;;;4.65;;
58260;SDS011;44058;52.898;6.502;2023-05-01T04:41:10;6.95;;;4.43;;
58260;SDS011;44058;52.898;6.502;2023-05-01T04:43:36;8.98;;;4.00;;
58260;SDS011;44058;52.898;6.502;2023-05-01T04:46:02;6.97;;;4.93;;
58260;SDS011;44058;52.898;6.502;2023-05-01T04:48:28;7.43;;;4.38;;
58260;SDS011;44058;52.898;6.502;2023-05-01T04:50:54;7.28;;;4.53;;
58260;SDS011;44058;52.898;6.502;2023-05-01T04:53:21;5.93;;;4.22;;
58260;SDS011;44058;52.898;6.502;2023-05-01T04:55:50;6.80;;;4.57;;
58260;SDS011;44058;52.898;6.502;2023-05-01T04:58:16;7.25;;;4.82;;
58260;SDS011;44058;52.898;6.502;2023-05-01T05:00:42;9.10;;;4.53;;
58260;SDS011;44058;52.898;6.502;2023-05-01T05:03:08;9.10;;;4.80;;
58260;SDS011;44058;52.898;6.502;2023-05-01T05:05:34;7.47;;;4.97;;
58260;SDS011;44058;52.898;6.502;2023-05-01T05:08:01;6.95;;;4.90;;
58260;SDS011;44058;52.898;6.502;2023-05-01T05:10:27;8.57;;;5.57;;
58260;SDS011;44058;52.898;6.502;2023-05-01T05:12:53;9.07;;;5.78;;
58260;SDS011;44058;52.898;6.502;2023-05-01T05:15:20;8.70;;;5.07;;
58260;SDS011;44058;52.898;6.502;2023-05-01T05:17:46;8.48;;;5.35;;
58260;SDS011;44058;52.898;6.502;2023-05-01T05:20:12;11.90;;;5.63;;
58260;SDS011;44058;52.898;6.502;2023-05-01T05:22:39;9.88;;;5.15;;
58260;SDS011;44058;52.898;6.502;2023-05-01T05:25:05;11.35;;;5.82;;
58260;SDS011;44058;52.898;6.502;2023-05-01T05:27:31;8.27;;;5.03;;
58260;SDS011;44058;52.898;6.502;2023-05-01T05:30:05;14.32;;;6.03;;
58260;SDS011;44058;52.898;6.502;2023-05-01T05:32:31;9.50;;;5.07;;
58260;SDS011;44058;52.898;6.502;2023-05-01T05:34:58;6.78;;;5.15;;
58260;SDS011;44058;52.898;6.502;2023-05-01T05:37:24;8.32;;;5.53;;
58260;SDS011;44058;52.898;6.502;2023-05-01T05:39:53;8.93;;;5.60;;
58260;SDS011;44058;52.898;6.502;2023-05-01T05:42:20;10.27;;;5.88;;
58260;SDS011;44058;52.898;6.502;2023-05-01T05:44:46;8.95;;;5.35;;
58260;SDS011;44058;52.898;6.502;2023-05-01T05:47:12;9.60;;;5.22;;
58260;SDS011;44058;52.898;6.502;2023-05-01T05:49:38;8.68;;;5.07;;
58260;SDS011;44058;52.898;6.502;2023-05-01T05:52:04;6.60;;;4.90;;
58260;SDS011;44058;52.898;6.502;2023-05-01T05:54:30;8.45;;;5.65;;
58260;SDS011;44058;52.898;6.502;2023-05-01T05:56:56;9.10;;;5.68;;
58260;SDS011;44058;52.898;6.502;2023-05-01T05:59:22;8.10;;;5.50;;
58260;SDS011;44058;52.898;6.502;2023-05-01T06:01:48;8.85;;;5.63;;
58260;SDS011;44058;52.898;6.502;2023-05-01T06:04:14;10.02;;;5.82;;
58260;SDS011;44058;52.898;6.502;2023-05-01T06:06:40;7.30;;;5.30;;
58260;SDS011;44058;52.898;6.502;2023-05-01T06:09:07;8.13;;;5.63;;
58260;SDS011;44058;52.898;6.502;2023-05-01T06:11:33;11.98;;;5.28;;
58260;SDS011;44058;52.898;6.502;2023-05-01T06:13:59;10.45;;;5.20;;
58260;SDS011;44058;52.898;6.502;2023-05-01T06:16:27;9.27;;;4.97;;
58260;SDS011;44058;52.898;6.502;2023-05-01T06:18:53;7.38;;;5.22;;
58260;SDS011;44058;52.898;6.502;2023-05-01T06:21:20;9.25;;;5.28;;
58260;SDS011;44058;52.898;6.502;2023-05-01T06:23:46;10.93;;;5.68;;
58260;SDS011;44058;52.898;6.502;2023-05-01T06:26:12;8.20;;;5.40;;
58260;SDS011;44058;52.898;6.502;2023-05-01T06:28:38;10.45;;;5.72;;
58260;SDS011;44058;52.898;6.502;2023-05-01T06:31:04;8.80;;;5.25;;
58260;SDS011;44058;52.898;6.502;2023-05-01T06:33:30;6.80;;;4.82;;
58260;SDS011;44058;52.898;6.502;2023-05-01T06:35:56;8.95;;;5.20;;
58260;SDS011;44058;52.898;6.502;2023-05-01T06:38:24;10.50;;;5.00;;
58260;SDS011;44058;52.898;6.502;2023-05-01T06:40:50;7.45;;;4.90;;
58260;SDS011;44058;52.898;6.502;2023-05-01T06:43:16;13.77;;;5.63;;
58260;SDS011;44058;52.898;6.502;2023-05-01T06:45:43;8.77;;;4.95;;
58260;SDS011;44058;52.898;6.502;2023-05-01T06:48:09;8.02;;;4.57;;
58260;SDS011;44058;52.898;6.502;2023-05-01T06:50:35;7.65;;;4.95;;
58260;SDS011;44058;52.898;6.502;2023-05-01T06:53:01;8.95;;;5.10;;
58260;SDS011;44058;52.898;6.502;2023-05-01T06:55:28;8.48;;;4.53;;
58260;SDS011;44058;52.898;6.502;2023-05-01T06:57:56;7.60;;;4.47;;
58260;SDS011;44058;52.898;6.502;2023-05-01T07:00:22;8.10;;;4.70;;
58260;SDS011;44058;52.898;6.502;2023-05-01T07:02:48;8.90;;;4.90;;
58260;SDS011;44058;52.898;6.502;2023-05-01T07:05:14;8.77;;;5.03;;
58260;SDS011;44058;52.898;6.502;2023-05-01T07:07:40;8.13;;;4.72;;
58260;SDS011;44058;52.898;6.502;2023-05-01T07:10:06;7.05;;;4.40;;
58260;SDS011;44058;52.898;6.502;2023-05-01T07:12:32;8.73;;;5.15;;
58260;SDS011;44058;52.898;6.502;2023-05-01T07:14:58;10.10;;;5.28;;
58260;SDS011;44058;52.898;6.502;2023-05-01T07:17:25;6.00;;;4.18;;
58260;SDS011;44058;52.898;6.502;2023-05-01T07:19:52;6.80;;;4.40;;
58260;SDS011;44058;52.898;6.502;2023-05-01T07:22:18;7.32;;;4.20;;
58260;SDS011;44058;52.898;6.502;2023-05-01T07:24:44;5.28;;;3.80;;
58260;SDS011;44058;52.898;6.502;2023-05-01T07:27:10;11.40;;;4.45;;
58260;SDS011;44058;52.898;6.502;2023-05-01T07:29:39;7.40;;;4.35;;
58260;SDS011;44058;52.898;6.502;2023-05-01T07:32:05;6.65;;;4.00;;
58260;SDS011;44058;52.898;6.502;2023-05-01T07:34:32;10.80;;;4.47;;
58260;SDS011;44058;52.898;6.502;2023-05-01T07:36:58;9.40;;;4.80;;
58260;SDS011;44058;52.898;6.502;2023-05-01T07:39:24;7.80;;;4.43;;
58260;SDS011;44058;52.898;6.502;2023-05-01T07:41:50;10.40;;;4.40;;
58260;SDS011;44058;52.898;6.502;2023-05-01T07:44:17;6.93;;;4.10;;
58260;SDS011;44058;52.898;6.502;2023-05-01T07:46:43;7.65;;;4.30;;
58260;SDS011;44058;52.898;6.502;2023-05-01T07:49:09;8.85;;;4.10;;
58260;SDS011;44058;52.898;6.502;2023-05-01T07:51:35;8.63;;;4.47;;
58260;SDS011;44058;52.898;6.502;2023-05-01T07:54:01;7.45;;;4.53;;
58260;SDS011;44058;52.898;6.502;2023-05-01T07:56:31;10.82;;;5.15;;
58260;SDS011;44058;52.898;6.502;2023-05-01T08:01:23;8.38;;;4.85;;
58260;SDS011;44058;52.898;6.502;2023-05-01T08:03:49;9.40;;;4.80;;
58260;SDS011;44058;52.898;6.502;2023-05-01T08:06:15;7.63;;;4.65;;
58260;SDS011;44058;52.898;6.502;2023-05-01T08:08:41;9.95;;;5.15;;
58260;SDS011;44058;52.898;6.502;2023-05-01T08:11:08;6.50;;;4.35;;
58260;SDS011;44058;52.898;6.502;2023-05-01T08:13:34;8.02;;;4.57;;
58260;SDS011;44058;52.898;6.502;2023-05-01T08:16:00;9.90;;;5.07;;
58260;SDS011;44058;52.898;6.502;2023-05-01T08:18:28;11.75;;;4.88;;
58260;SDS011;44058;52.898;6.502;2023-05-01T08:20:54;7.30;;;4.32;;
58260;SDS011;44058;52.898;6.502;2023-05-01T08:23:20;12.70;;;4.95;;
58260;SDS011;44058;52.898;6.502;2023-05-01T08:25:49;9.30;;;4.35;;
58260;SDS011;44058;52.898;6.502;2023-05-01T08:28:16;6.68;;;4.55;;
58260;SDS011;44058;52.898;6.502;2023-05-01T08:30:42;6.45;;;4.57;;
58260;SDS011;44058;52.898;6.502;2023-05-01T08:33:08;7.03;;;4.93;;
58260;SDS011;44058;52.898;6.502;2023-05-01T08:35:34;7.82;;;4.78;;
58260;SDS011;44058;52.898;6.502;2023-05-01T08:38:00;8.82;;;4.57;;
58260;SDS011;44058;52.898;6.502;2023-05-01T08:40:27;7.10;;;4.65;;
58260;SDS011;44058;52.898;6.502;2023-05-01T08:42:56;10.05;;;4.35;;
58260;SDS011;44058;52.898;6.502;2023-05-01T08:45:23;7.80;;;4.30;;
58260;SDS011;44058;52.898;6.502;2023-05-01T08:47:49;7.00;;;4.38;;
58260;SDS011;44058;52.898;6.502;2023-05-01T08:50:17;7.13;;;4.35;;
58260;SDS011;44058;52.898;6.502;2023-05-01T08:52:44;7.75;;;4.00;;
58260;SDS011;44058;52.898;6.502;2023-05-01T08:55:12;6.30;;;3.95;;
58260;SDS011;44058;52.898;6.502;2023-05-01T08:57:42;11.85;;;4.00;;
58260;SDS011;44058;52.898;6.502;2023-05-01T09:00:09;9.82;;;4.63;;
58260;SDS011;44058;52.898;6.502;2023-05-01T09:02:38;6.63;;;3.95;;
58260;SDS011;44058;52.898;6.502;2023-05-01T09:05:04;5.32;;;3.85;;
58260;SDS011;44058;52.898;6.502;2023-05-01T09:07:31;9.27;;;4.60;;
58260;SDS011;44058;52.898;6.502;2023-05-01T09:09:58;4.93;;;3.20;;
58260;SDS011;44058;52.898;6.502;2023-05-01T09:12:24;5.25;;;2.92;;
58260;SDS011;44058;52.898;6.502;2023-05-01T09:14:51;5.93;;;3.35;;
58260;SDS011;44058;52.898;6.502;2023-05-01T09:17:17;9.23;;;3.00;;
58260;SDS011;44058;52.898;6.502;2023-05-01T09:19:44;8.73;;;3.15;;
58260;SDS011;44058;52.898;6.502;2023-05-01T09:22:10;8.00;;;3.53;;
58260;SDS011;44058;52.898;6.502;2023-05-01T09:24:37;4.45;;;2.72;;
58260;SDS011;44058;52.898;6.502;2023-05-01T09:27:03;6.32;;;3.88;;
58260;SDS011;44058;52.898;6.502;2023-05-01T09:29:43;5.80;;;3.10;;
58260;SDS011;44058;52.898;6.502;2023-05-01T09:32:14;7.75;;;2.92;;
58260;SDS011;44058;52.898;6.502;2023-05-01T09:34:41;6.22;;;3.03;;
58260;SDS011;44058;52.898;6.502;2023-05-01T09:37:40;6.05;;;3.50;;
58260;SDS011;44058;52.898;6.502;2023-05-01T09:40:18;5.30;;;3.80;;
58260;SDS011;44058;52.898;6.502;2023-05-01T09:42:50;4.40;;;2.80;;
58260;SDS011;44058;52.898;6.502;2023-05-01T09:45:17;5.28;;;3.25;;
58260;SDS011;44058;52.898;6.502;2023-05-01T09:47:43;5.57;;;2.88;;
58260;SDS011;44058;52.898;6.502;2023-05-01T09:50:10;6.28;;;2.60;;
58260;SDS011;44058;52.898;6.502;2023-05-01T09:52:37;5.67;;;2.87;;
58260;SDS011;44058;52.898;6.502;2023-05-01T09:55:13;6.53;;;2.80;;
58260;SDS011;44058;52.898;6.502;2023-05-01T09:57:40;3.95;;;2.53;;
58260;SDS011;44058;52.898;6.502;2023-05-01T10:00:10;4.15;;;2.75;;
58260;SDS011;44058;52.898;6.502;2023-05-01T10:02:38;6.22;;;2.90;;
58260;SDS011;44058;52.898;6.502;2023-05-01T10:05:04;6.57;;;2.78;;
58260;SDS011;44058;52.898;6.502;2023-05-01T10:07:31;4.65;;;2.78;;
58260;SDS011;44058;52.898;6.502;2023-05-01T10:09:57;3.97;;;2.15;;
58260;SDS011;44058;52.898;6.502;2023-05-01T10:12:24;2.85;;;2.35;;
58260;SDS011;44058;52.898;6.502;2023-05-01T10:14:51;4.63;;;2.75;;
58260;SDS011;44058;52.898;6.502;2023-05-01T10:17:17;4.10;;;1.92;;
58260;SDS011;44058;52.898;6.502;2023-05-01T10:19:45;3.95;;;2.13;;
58260;SDS011;44058;52.898;6.502;2023-05-01T10:22:15;2.72;;;1.33;;
58260;SDS011;44058;52.898;6.502;2023-05-01T10:24:42;3.13;;;1.80;;
58260;SDS011;44058;52.898;6.502;2023-05-01T10:27:10;3.63;;;1.30;;
58260;SDS011;44058;52.898;6.502;2023-05-01T10:29:37;1.75;;;1.65;;
58260;SDS011;44058;52.898;6.502;2023-05-01T10:32:05;0.88;;;0.75;;
58260;SDS011;44058;52.898;6.502;2023-05-01T10:34:37;1.93;;;0.70;;
58260;SDS011;44058;52.898;6.502;2023-05-01T10:37:17;1.20;;;0.98;;
58260;SDS011;44058;52.898;6.502;2023-05-01T10:39:44;2.45;;;0.95;;
58260;SDS011;44058;52.898;6.502;2023-05-01T10:42:10;1.42;;;1.10;;
58260;SDS011;44058;52.898;6.502;2023-05-01T10:44:38;2.55;;;0.80;;
58260;SDS011;44058;52.898;6.502;2023-05-01T10:50:05;2.35;;;1.55;;
58260;SDS011;44058;52.898;6.502;2023-05-01T10:55:38;2.45;;;1.08;;
58260;SDS011;44058;52.898;6.502;2023-05-01T10:58:03;3.50;;;1.30;;
58260;SDS011;44058;52.898;6.502;2023-05-01T11:00:29;3.72;;;1.85;;
58260;SDS011;44058;52.898;6.502;2023-05-01T11:08:35;2.00;;;1.20;;
58260;SDS011;44058;52.898;6.502;2023-05-01T11:21:33;1.65;;;1.35;;
58260;SDS011;44058;52.898;6.502;2023-05-01T11:23:59;4.50;;;1.23;;
58260;SDS011;44058;52.898;6.502;2023-05-01T11:26:28;2.40;;;1.40;;
58260;SDS011;44058;52.898;6.502;2023-05-01T11:28:56;12.65;;;2.22;;
58260;SDS011;44058;52.898;6.502;2023-05-01T11:31:24;3.15;;;1.10;;
58260;SDS011;44058;52.898;6.502;2023-05-01T11:33:51;4.33;;;1.30;;
58260;SDS011;44058;52.898;6.502;2023-05-01T11:36:17;5.25;;;1.55;;
58260;SDS011;44058;52.898;6.502;2023-05-01T11:38:53;4.30;;;1.40;;
58260;SDS011;44058;52.898;6.502;2023-05-01T11:41:24;4.47;;;1.77;;
58260;SDS011;44058;52.898;6.502;2023-05-01T11:43:51;1.50;;;1.02;;
58260;SDS011;44058;52.898;6.502;2023-05-01T11:46:22;2.63;;;1.30;;
58260;SDS011;44058;52.898;6.502;2023-05-01T11:48:49;2.67;;;1.42;;
58260;SDS011;44058;52.898;6.502;2023-05-01T11:51:15;2.83;;;1.70;;
58260;SDS011;44058;52.898;6.502;2023-05-01T11:53:56;2.55;;;1.33;;
58260;SDS011;44058;52.898;6.502;2023-05-01T11:56:23;3.53;;;1.70;;
58260;SDS011;44058;52.898;6.502;2023-05-01T11:58:49;2.95;;;1.52;;
58260;SDS011;44058;52.898;6.502;2023-05-01T12:01:16;3.42;;;1.67;;
58260;SDS011;44058;52.898;6.502;2023-05-01T12:03:42;3.88;;;1.30;;
58260;SDS011;44058;52.898;6.502;2023-05-01T12:06:12;2.38;;;1.40;;
58260;SDS011;44058;52.898;6.502;2023-05-01T12:08:42;1.73;;;1.02;;
58260;SDS011;44058;52.898;6.502;2023-05-01T12:11:09;2.92;;;1.50;;
58260;SDS011;44058;52.898;6.502;2023-05-01T12:13:35;4.57;;;2.13;;
58260;SDS011;44058;52.898;6.502;2023-05-01T12:16:03;1.17;;;1.13;;
58260;SDS011;44058;52.898;6.502;2023-05-01T12:18:30;1.90;;;1.25;;
58260;SDS011;44058;52.898;6.502;2023-05-01T12:20:57;2.92;;;1.38;;
58260;SDS011;44058;52.898;6.502;2023-05-01T12:23:33;2.70;;;1.33;;
58260;SDS011;44058;52.898;6.502;2023-05-01T12:26:01;1.50;;;1.08;;
58260;SDS011;44058;52.898;6.502;2023-05-01T12:28:28;6.63;;;2.30;;
58260;SDS011;44058;52.898;6.502;2023-05-01T12:30:59;2.88;;;2.28;;
58260;SDS011;44058;52.898;6.502;2023-05-01T12:33:26;3.03;;;2.13;;
58260;SDS011;44058;52.898;6.502;2023-05-01T12:35:52;4.68;;;1.83;;
58260;SDS011;44058;52.898;6.502;2023-05-01T12:38:19;2.80;;;1.80;;
58260;SDS011;44058;52.898;6.502;2023-05-01T12:40:52;2.50;;;1.83;;
58260;SDS011;44058;52.898;6.502;2023-05-01T12:43:19;6.57;;;1.83;;
58260;SDS011;44058;52.898;6.502;2023-05-01T12:45:47;4.03;;;1.70;;
58260;SDS011;44058;52.898;6.502;2023-05-01T12:48:16;3.28;;;1.88;;
58260;SDS011;44058;52.898;6.502;2023-05-01T12:50:43;4.18;;;1.73;;
58260;SDS011;44058;52.898;6.502;2023-05-01T12:53:09;2.50;;;1.58;;
58260;SDS011;44058;52.898;6.502;2023-05-01T12:55:45;3.13;;;1.70;;
58260;SDS011;44058;52.898;6.502;2023-05-01T12:58:11;3.63;;;1.40;;
58260;SDS011;44058;52.898;6.502;2023-05-01T13:00:51;1.70;;;1.15;;
58260;SDS011;44058;52.898;6.502;2023-05-01T13:03:27;4.03;;;1.30;;
58260;SDS011;44058;52.898;6.502;2023-05-01T13:06:00;1.90;;;1.48;;
58260;SDS011;44058;52.898;6.502;2023-05-01T13:08:31;3.05;;;1.30;;
58260;SDS011;44058;52.898;6.502;2023-05-01T13:10:58;2.10;;;1.10;;
58260;SDS011;44058;52.898;6.502;2023-05-01T13:13:25;2.75;;;1.27;;
58260;SDS011;44058;52.898;6.502;2023-05-01T13:15:51;4.05;;;1.40;;
58260;SDS011;44058;52.898;6.502;2023-05-01T13:18:17;4.18;;;1.20;;
58260;SDS011;44058;52.898;6.502;2023-05-01T13:20:44;2.75;;;1.38;;
58260;SDS011;44058;52.898;6.502;2023-05-01T13:23:10;3.38;;;1.55;;
58260;SDS011;44058;52.898;6.502;2023-05-01T13:25:40;1.65;;;1.55;;
58260;SDS011;44058;52.898;6.502;2023-05-01T13:28:06;2.83;;;1.70;;
58260;SDS011;44058;52.898;6.502;2023-05-01T13:30:33;2.78;;;1.50;;
58260;SDS011;44058;52.898;6.502;2023-05-01T13:32:59;2.95;;;1.45;;
58260;SDS011;44058;52.898;6.502;2023-05-01T13:35:26;3.35;;;1.77;;
58260;SDS011;44058;52.898;6.502;2023-05-01T13:37:52;3.15;;;1.90;;
58260;SDS011;44058;52.898;6.502;2023-05-01T13:40:18;3.28;;;1.50;;
58260;SDS011;44058;52.898;6.502;2023-05-01T13:42:46;3.47;;;2.10;;
58260;SDS011;44058;52.898;6.502;2023-05-01T13:45:13;3.60;;;2.00;;
58260;SDS011;44058;52.898;6.502;2023-05-01T13:47:43;4.93;;;2.15;;
58260;SDS011;44058;52.898;6.502;2023-05-01T13:50:09;3.65;;;1.77;;
58260;SDS011;44058;52.898;6.502;2023-05-01T13:52:41;3.10;;;1.58;;
58260;SDS011;44058;52.898;6.502;2023-05-01T13:55:08;4.45;;;2.20;;
58260;SDS011;44058;52.898;6.502;2023-05-01T13:57:36;4.00;;;2.58;;
58260;SDS011;44058;52.898;6.502;2023-05-01T14:00:02;7.15;;;2.72;;
58260;SDS011;44058;52.898;6.502;2023-05-01T14:02:29;4.32;;;2.15;;
58260;SDS011;44058;52.898;6.502;2023-05-01T14:04:55;3.80;;;1.92;;
58260;SDS011;44058;52.898;6.502;2023-05-01T14:07:22;4.75;;;2.45;;
58260;SDS011;44058;52.898;6.502;2023-05-01T14:09:53;4.28;;;2.03;;
58260;SDS011;44058;52.898;6.502;2023-05-01T14:12:29;3.38;;;2.08;;
58260;SDS011;44058;52.898;6.502;2023-05-01T14:14:55;3.45;;;2.03;;
58260;SDS011;44058;52.898;6.502;2023-05-01T14:17:25;3.72;;;2.70;;
58260;SDS011;44058;52.898;6.502;2023-05-01T14:19:52;3.80;;;2.63;;
58260;SDS011;44058;52.898;6.502;2023-05-01T14:22:19;4.72;;;3.25;;
58260;SDS011;44058;52.898;6.502;2023-05-01T14:24:46;4.80;;;2.72;;
58260;SDS011;44058;52.898;6.502;2023-05-01T14:27:13;7.53;;;3.50;;
58260;SDS011;44058;52.898;6.502;2023-05-01T14:29:42;5.38;;;3.00;;
58260;SDS011;44058;52.898;6.502;2023-05-01T14:32:09;4.70;;;3.38;;
58260;SDS011;44058;52.898;6.502;2023-05-01T14:34:38;5.32;;;3.20;;
58260;SDS011;44058;52.898;6.502;2023-05-01T14:37:06;4.65;;;3.22;;
58260;SDS011;44058;52.898;6.502;2023-05-01T14:39:32;8.45;;;3.47;;
58260;SDS011;44058;52.898;6.502;2023-05-01T14:41:58;6.32;;;3.08;;
58260;SDS011;44058;52.898;6.502;2023-05-01T14:44:25;6.18;;;3.70;;
58260;SDS011;44058;52.898;6.502;2023-05-01T14:46:52;9.55;;;4.10;;
58260;SDS011;44058;52.898;6.502;2023-05-01T14:49:22;15.20;;;3.65;;
58260;SDS011;44058;52.898;6.502;2023-05-01T14:51:49;10.35;;;4.00;;
58260;SDS011;44058;52.898;6.502;2023-05-01T14:54:16;5.18;;;3.17;;
58260;SDS011;44058;52.898;6.502;2023-05-01T14:56:43;7.47;;;3.80;;
58260;SDS011;44058;52.898;6.502;2023-05-01T14:59:09;3.72;;;3.03;;
58260;SDS011;44058;52.898;6.502;2023-05-01T15:01:36;5.47;;;3.50;;
58260;SDS011;44058;52.898;6.502;2023-05-01T15:04:02;13.40;;;3.95;;
58260;SDS011;44058;52.898;6.502;2023-05-01T15:06:31;6.35;;;3.30;;
58260;SDS011;44058;52.898;6.502;2023-05-01T15:08:57;8.57;;;3.50;;
58260;SDS011;44058;52.898;6.502;2023-05-01T15:11:24;4.65;;;2.90;;
58260;SDS011;44058;52.898;6.502;2023-05-01T15:13:50;6.40;;;3.20;;
58260;SDS011;44058;52.898;6.502;2023-05-01T15:16:16;5.78;;;3.30;;
58260;SDS011;44058;52.898;6.502;2023-05-01T15:18:42;4.82;;;3.13;;
58260;SDS011;44058;52.898;6.502;2023-05-01T15:21:08;9.60;;;3.38;;
58260;SDS011;44058;52.898;6.502;2023-05-01T15:23:34;4.20;;;3.17;;
58260;SDS011;44058;52.898;6.502;2023-05-01T15:26:01;6.43;;;3.50;;
58260;SDS011;44058;52.898;6.502;2023-05-01T15:28:28;11.85;;;3.47;;
58260;SDS011;44058;52.898;6.502;2023-05-01T15:30:54;10.02;;;4.10;;
58260;SDS011;44058;52.898;6.502;2023-05-01T15:33:20;8.00;;;3.35;;
58260;SDS011;44058;52.898;6.502;2023-05-01T15:35:47;5.82;;;3.10;;